Аэропорт: Мирный. Мирный

ICAO: UERR

METAR:
2021-01-20 02:30:00
UERR 200230Z 34003MPS 6000 -SN NSC M49/M52 Q1010 R25/490335 NOSIG RMK QFE727/0969
METAR:
2021-01-19 23:00:00
TAF UERR 192300Z 2000/2024 01002MPS 4000 -SN BR SCT007 BKN100 TXM44/2005Z TNM50/2001Z TEMPO 2000/2006 0400 FG VV003